Time;durP1;ratioP1;P1;durP2;ratioP2;P2;SDS_P1;SDS_P2;PMS_P1;PMS_P2;Temp;Humidity;BMP_temperature;BMP_pressure;BME280_temperature;BME280_humidity;BME280_pressure;Samples;Min_cycle;Max_cycle;Signal;HPM_P1;HPM_P2
2021/10/30 00:00:09;;;;;;;11.23;7.65;;;11.50;99.90;;;;;;5026904;28;20037;-65
2021/10/30 00:02:35;;;;;;;10.95;8.45;;;11.50;99.90;;;;;;5028429;28;20033;-65
2021/10/30 00:05:01;;;;;;;8.18;7.22;;;11.50;99.90;;;;;;5020040;28;20065;-65
2021/10/30 00:07:27;;;;;;;10.82;7.70;;;11.50;99.90;;;;;;5022731;28;20123;-65
2021/10/30 00:09:53;;;;;;;8.55;6.65;;;11.40;99.90;;;;;;5024162;28;20095;-65
2021/10/30 00:12:18;;;;;;;10.60;7.43;;;11.40;99.90;;;;;;5027570;28;20056;-65
2021/10/30 00:14:44;;;;;;;10.07;7.95;;;11.40;99.90;;;;;;5020810;28;20045;-65
2021/10/30 00:17:11;;;;;;;8.27;7.07;;;11.40;99.90;;;;;;5025549;28;20038;-65
2021/10/30 00:19:38;;;;;;;9.30;6.97;;;11.30;99.90;;;;;;5023818;28;20033;-65
2021/10/30 00:22:04;;;;;;;15.27;7.47;;;11.30;99.90;;;;;;5024807;28;20046;-65
2021/10/30 00:24:33;;;;;;;12.15;7.25;;;11.30;99.90;;;;;;5021518;28;20033;-65
2021/10/30 00:27:05;;;;;;;11.70;7.88;;;11.20;99.90;;;;;;5023981;28;20433;-65
2021/10/30 00:29:32;;;;;;;9.88;7.50;;;11.20;99.90;;;;;;5022661;28;20386;-65
2021/10/30 00:31:58;;;;;;;10.07;7.40;;;11.20;99.90;;;;;;5008477;28;20057;-65
2021/10/30 00:34:24;;;;;;;9.95;7.78;;;11.20;99.90;;;;;;5007133;28;20045;-65
2021/10/30 00:36:50;;;;;;;10.23;7.43;;;11.10;99.90;;;;;;5007966;28;20060;-65
2021/10/30 00:39:16;;;;;;;10.10;7.80;;;11.10;99.90;;;;;;5022638;28;20041;-65
2021/10/30 00:41:50;;;;;;;11.30;7.95;;;11.00;99.90;;;;;;5017797;28;20046;-65
2021/10/30 00:44:17;;;;;;;9.88;8.07;;;11.00;99.90;;;;;;5027696;28;20037;-65
2021/10/30 00:46:44;;;;;;;11.27;8.35;;;11.00;99.90;;;;;;5002704;28;20490;-65
2021/10/30 00:49:11;;;;;;;11.93;8.13;;;11.00;99.90;;;;;;5022920;28;20042;-65
2021/10/30 00:51:39;;;;;;;8.93;7.50;;;10.90;99.90;;;;;;5023659;28;20398;-65
2021/10/30 00:54:06;;;;;;;14.75;8.30;;;11.00;99.90;;;;;;5023654;28;20046;-65
2021/10/30 00:56:32;;;;;;;9.93;7.55;;;10.90;99.90;;;;;;5018679;28;20117;-65
2021/10/30 00:59:03;;;;;;;9.45;7.80;;;10.90;99.90;;;;;;5024234;28;20063;-65
2021/10/30 01:01:29;;;;;;;9.43;6.97;;;10.90;99.90;;;;;;5024047;28;20068;-65
2021/10/30 01:03:56;;;;;;;7.13;6.43;;;10.80;99.90;;;;;;5029678;28;20080;-65
2021/10/30 01:06:22;;;;;;;10.27;7.43;;;10.70;99.90;;;;;;4988484;28;20111;-65
2021/10/30 01:08:48;;;;;;;10.38;7.63;;;10.70;99.90;;;;;;5028016;28;20041;-65
2021/10/30 01:11:15;;;;;;;10.02;8.32;;;10.70;99.90;;;;;;5003998;28;20084;-65
2021/10/30 01:13:42;;;;;;;9.52;8.20;;;10.70;99.90;;;;;;5021854;28;20414;-65
2021/10/30 01:16:09;;;;;;;8.10;7.30;;;10.70;99.90;;;;;;5019361;28;20114;-65
2021/10/30 01:18:35;;;;;;;10.30;7.57;;;10.70;99.90;;;;;;5029556;28;20095;-65
2021/10/30 01:21:01;;;;;;;11.77;7.40;;;10.60;99.90;;;;;;5027764;28;20436;-64
2021/10/30 01:23:27;;;;;;;9.32;7.55;;;10.60;99.90;;;;;;5016208;28;20041;-65
2021/10/30 01:26:01;;;;;;;11.02;8.18;;;10.60;99.90;;;;;;5021750;28;20080;-65
2021/10/30 01:28:28;;;;;;;12.00;8.18;;;10.50;99.90;;;;;;5021793;28;20504;-65
2021/10/30 01:30:55;;;;;;;10.25;7.65;;;10.60;99.90;;;;;;5024820;28;20065;-65
2021/10/30 01:33:21;;;;;;;11.32;8.55;;;10.50;99.90;;;;;;5017862;28;20112;-65
2021/10/30 01:35:47;;;;;;;10.20;8.02;;;10.50;99.90;;;;;;5030109;28;20123;-65
2021/10/30 01:38:13;;;;;;;12.65;8.38;;;10.50;99.90;;;;;;5019480;28;20049;-65
2021/10/30 01:40:40;;;;;;;9.45;8.50;;;10.50;99.90;;;;;;5024000;28;20048;-65
2021/10/30 01:43:05;;;;;;;10.73;9.63;;;10.50;99.90;;;;;;4996680;28;20045;-65
2021/10/30 01:45:31;;;;;;;9.88;8.32;;;10.40;99.90;;;;;;5030043;28;20042;-65
2021/10/30 01:47:57;;;;;;;15.98;9.07;;;10.40;99.90;;;;;;5005119;28;20057;-65
2021/10/30 01:50:24;;;;;;;10.75;8.20;;;10.40;99.90;;;;;;5026242;28;20085;-65
2021/10/30 01:52:50;;;;;;;12.82;9.85;;;10.30;99.90;;;;;;5020570;28;23383;-65
2021/10/30 01:55:18;;;;;;;14.02;10.52;;;10.40;99.90;;;;;;5026582;28;20199;-65
2021/10/30 01:57:45;;;;;;;13.65;11.38;;;10.40;99.90;;;;;;5018050;28;20030;-65
2021/10/30 02:00:11;;;;;;;13.20;9.27;;;10.40;99.90;;;;;;5025046;28;20041;-65
2021/10/30 02:02:37;;;;;;;12.80;9.32;;;10.40;99.90;;;;;;5022666;28;20515;-65
2021/10/30 02:05:04;;;;;;;11.65;9.90;;;10.40;99.90;;;;;;5018761;28;20037;-65
2021/10/30 02:07:30;;;;;;;11.63;9.60;;;10.40;99.90;;;;;;5028341;28;20069;-64
2021/10/30 02:09:56;;;;;;;12.10;10.63;;;10.40;99.90;;;;;;5019977;28;20469;-64
2021/10/30 02:12:21;;;;;;;12.10;10.38;;;10.30;99.90;;;;;;5003723;28;20402;-65
2021/10/30 02:14:47;;;;;;;12.60;9.75;;;10.40;99.90;;;;;;5016842;28;20041;-65
2021/10/30 02:17:14;;;;;;;12.52;10.70;;;10.30;99.90;;;;;;5004616;28;20072;-65
2021/10/30 02:19:40;;;;;;;11.40;10.10;;;10.40;99.90;;;;;;5020309;28;20273;-64
2021/10/30 02:22:05;;;;;;;11.90;10.02;;;10.30;99.90;;;;;;5026327;28;20128;-65
2021/10/30 02:24:32;;;;;;;11.25;9.27;;;10.40;99.90;;;;;;5021423;28;20037;-65
2021/10/30 02:26:58;;;;;;;15.55;11.18;;;10.30;99.90;;;;;;5024060;28;20041;-65
2021/10/30 02:29:24;;;;;;;14.77;11.25;;;10.30;99.90;;;;;;5017606;28;20037;-64
2021/10/30 02:31:50;;;;;;;12.27;10.18;;;10.30;99.90;;;;;;5008798;28;20049;-65
2021/10/30 02:34:15;;;;;;;12.90;10.55;;;10.30;99.90;;;;;;5020782;28;20414;-65
2021/10/30 02:36:41;;;;;;;14.50;11.60;;;10.30;99.90;;;;;;5021000;28;20401;-65
2021/10/30 02:39:10;;;;;;;13.07;10.30;;;10.30;99.90;;;;;;5022941;28;20037;-64
2021/10/30 02:41:36;;;;;;;13.20;10.23;;;10.20;99.90;;;;;;5003736;28;20120;-64
2021/10/30 02:44:02;;;;;;;14.68;11.30;;;10.20;99.90;;;;;;5028060;28;20041;-64
2021/10/30 02:46:29;;;;;;;19.60;12.18;;;10.20;99.90;;;;;;5015468;28;20045;-64
2021/10/30 02:48:54;;;;;;;13.48;11.40;;;10.10;99.90;;;;;;5025450;28;20045;-64
2021/10/30 02:51:20;;;;;;;16.25;11.52;;;10.10;99.90;;;;;;5018725;28;20040;-64
2021/10/30 02:53:46;;;;;;;14.32;12.45;;;10.10;99.90;;;;;;5027791;28;20379;-64
2021/10/30 02:56:12;;;;;;;13.93;11.23;;;10.10;99.90;;;;;;5019306;28;20041;-64
2021/10/30 02:58:37;;;;;;;16.08;12.13;;;10.10;99.90;;;;;;4992236;28;20046;-64
2021/10/30 03:01:03;;;;;;;14.52;11.57;;;10.10;99.90;;;;;;5022238;28;20033;-64
2021/10/30 03:03:29;;;;;;;14.73;11.90;;;10.10;99.90;;;;;;5010688;28;20049;-64
2021/10/30 03:05:54;;;;;;;14.93;11.65;;;10.10;99.90;;;;;;5017847;28;20421;-64
2021/10/30 03:08:20;;;;;;;17.27;12.02;;;10.10;99.90;;;;;;5023738;28;20029;-64
2021/10/30 03:10:46;;;;;;;18.92;13.98;;;10.10;99.90;;;;;;5018253;28;20034;-65
2021/10/30 03:13:12;;;;;;;14.73;12.57;;;10.10;99.90;;;;;;5022493;28;20045;-64
2021/10/30 03:15:38;;;;;;;18.30;13.57;;;10.10;99.90;;;;;;5022497;28;20037;-65
2021/10/30 03:18:03;;;;;;;19.98;13.95;;;10.10;99.90;;;;;;5022570;28;20803;-65
2021/10/30 03:20:29;;;;;;;18.50;14.82;;;10.20;99.90;;;;;;5023554;28;20041;-64
2021/10/30 03:22:55;;;;;;;21.15;15.52;;;10.20;99.90;;;;;;5018939;28;20124;-64
2021/10/30 03:25:20;;;;;;;18.38;15.05;;;10.30;99.90;;;;;;5026494;28;20402;-64
2021/10/30 03:27:46;;;;;;;21.20;15.80;;;10.20;99.90;;;;;;5023434;28;20065;-64
2021/10/30 03:30:12;;;;;;;20.38;16.33;;;10.20;99.90;;;;;;5022951;28;20049;-64
2021/10/30 03:32:38;;;;;;;17.35;14.27;;;10.20;99.90;;;;;;5016948;28;20041;-64
2021/10/30 03:35:04;;;;;;;19.70;15.27;;;10.20;99.90;;;;;;5024013;28;20041;-64
2021/10/30 03:37:33;;;;;;;22.02;17.50;;;10.30;99.90;;;;;;5003419;28;20050;-64
2021/10/30 03:39:59;;;;;;;21.55;16.67;;;10.30;99.90;;;;;;5000441;28;20042;-64
2021/10/30 03:42:25;;;;;;;22.75;15.95;;;10.30;99.90;;;;;;5018256;28;20120;-64
2021/10/30 03:44:51;;;;;;;22.83;16.88;;;10.20;99.90;;;;;;5011105;28;20450;-64
2021/10/30 03:47:17;;;;;;;21.13;17.05;;;10.30;99.90;;;;;;5016680;28;20045;-64
2021/10/30 03:49:43;;;;;;;21.27;16.63;;;10.30;99.90;;;;;;5005246;28;20068;-64
2021/10/30 03:52:09;;;;;;;26.13;16.80;;;10.30;99.90;;;;;;5020700;28;20502;-64
2021/10/30 03:54:34;;;;;;;18.10;15.82;;;10.30;99.90;;;;;;5010550;28;20041;-64
2021/10/30 03:57:00;;;;;;;19.75;16.40;;;10.30;99.90;;;;;;5022452;28;20607;-64
2021/10/30 03:59:26;;;;;;;24.98;16.10;;;10.30;99.90;;;;;;5018674;28;20480;-64
2021/10/30 04:01:52;;;;;;;23.88;17.20;;;10.30;99.90;;;;;;5026448;28;20044;-64
2021/10/30 04:04:17;;;;;;;21.83;17.67;;;10.30;99.90;;;;;;5020505;28;20061;-64
2021/10/30 04:06:43;;;;;;;22.35;16.95;;;10.20;99.90;;;;;;5021010;28;20034;-64
2021/10/30 04:09:09;;;;;;;20.30;16.70;;;10.20;99.90;;;;;;5018785;28;20030;-64
2021/10/30 04:11:34;;;;;;;20.50;18.00;;;10.20;99.90;;;;;;5028516;28;20416;-64
2021/10/30 04:14:00;;;;;;;20.85;17.08;;;10.20;99.90;;;;;;5016519;28;20046;-64
2021/10/30 04:16:26;;;;;;;20.13;17.92;;;10.20;99.90;;;;;;5022770;28;20034;-64
2021/10/30 04:18:52;;;;;;;22.50;16.83;;;10.20;99.90;;;;;;5019067;28;20109;-64
2021/10/30 04:21:17;;;;;;;25.73;19.98;;;10.30;99.90;;;;;;5024967;28;20041;-64
2021/10/30 04:23:43;;;;;;;32.05;21.02;;;10.30;99.90;;;;;;5016582;28;20489;-64
2021/10/30 04:26:09;;;;;;;24.42;18.88;;;10.40;99.90;;;;;;5022524;28;20056;-64
2021/10/30 04:28:35;;;;;;;29.52;21.90;;;10.50;99.90;;;;;;5017836;28;20552;-64
2021/10/30 04:31:07;;;;;;;21.38;18.58;;;10.50;99.90;;;;;;5019654;28;20092;-64
2021/10/30 04:33:33;;;;;;;27.10;19.90;;;10.60;99.90;;;;;;5018440;28;21068;-64
2021/10/30 04:36:02;;;;;;;26.88;19.50;;;10.60;99.90;;;;;;5019628;28;20038;-64
2021/10/30 04:38:28;;;;;;;24.58;19.67;;;10.50;99.90;;;;;;5023749;28;20120;-64
2021/10/30 04:40:54;;;;;;;21.40;17.55;;;10.60;99.90;;;;;;5014888;28;20057;-64
2021/10/30 04:43:20;;;;;;;20.20;17.63;;;10.60;99.90;;;;;;5024252;28;20044;-64
2021/10/30 04:45:46;;;;;;;22.15;17.75;;;10.60;99.90;;;;;;5020334;28;20091;-64
2021/10/30 04:48:12;;;;;;;23.27;18.08;;;10.60;99.90;;;;;;5022174;28;20046;-64
2021/10/30 04:50:39;;;;;;;22.90;18.33;;;10.50;99.90;;;;;;5022862;28;20064;-64
2021/10/30 04:53:04;;;;;;;22.25;18.02;;;10.50;99.90;;;;;;5022750;28;20107;-64
2021/10/30 04:55:30;;;;;;;24.98;18.83;;;10.50;99.90;;;;;;4998264;28;20088;-64
2021/10/30 04:57:56;;;;;;;23.35;18.92;;;10.50;99.90;;;;;;5021256;28;20061;-64
2021/10/30 05:00:21;;;;;;;23.42;17.98;;;10.50;99.90;;;;;;5020930;28;20148;-64
2021/10/30 05:02:47;;;;;;;21.38;17.70;;;10.50;99.90;;;;;;5021712;28;20505;-64
2021/10/30 05:05:13;;;;;;;28.08;19.38;;;10.50;99.90;;;;;;5021541;28;20037;-64
2021/10/30 05:07:39;;;;;;;24.65;20.00;;;10.60;99.90;;;;;;5011434;28;20544;-64
2021/10/30 05:10:05;;;;;;;24.15;19.85;;;10.50;99.90;;;;;;5018029;28;20464;-64
2021/10/30 05:12:31;;;;;;;29.88;21.35;;;10.50;99.90;;;;;;5020665;28;20045;-64
2021/10/30 05:14:57;;;;;;;23.08;19.98;;;10.50;99.90;;;;;;5021691;28;20029;-64
2021/10/30 05:17:22;;;;;;;23.67;20.45;;;10.50;99.90;;;;;;4982866;28;20072;-64
2021/10/30 05:19:48;;;;;;;24.85;21.05;;;10.50;99.90;;;;;;5029735;28;20549;-64
2021/10/30 05:22:14;;;;;;;30.95;22.27;;;10.50;99.90;;;;;;5007048;28;20417;-64
2021/10/30 05:24:39;;;;;;;31.90;22.77;;;10.50;99.90;;;;;;5021499;28;20033;-64
2021/10/30 05:27:05;;;;;;;28.95;22.20;;;10.50;99.90;;;;;;5014241;28;20394;-64
2021/10/30 05:29:31;;;;;;;30.70;23.38;;;10.50;99.90;;;;;;5022291;28;20037;-64
2021/10/30 05:31:57;;;;;;;30.30;22.70;;;10.50;99.90;;;;;;4997542;28;20072;-64
2021/10/30 05:34:22;;;;;;;34.35;24.80;;;10.50;99.90;;;;;;5008158;28;20033;-64
2021/10/30 05:36:48;;;;;;;26.27;21.77;;;10.50;99.90;;;;;;5000194;28;20041;-64
2021/10/30 05:39:16;;;;;;;29.25;22.35;;;10.60;99.90;;;;;;5004447;28;20609;-64
2021/10/30 05:41:43;;;;;;;25.92;21.55;;;10.60;99.90;;;;;;4993481;28;20072;-64
2021/10/30 05:44:09;;;;;;;25.83;22.50;;;10.60;99.90;;;;;;5002307;28;20042;-64
2021/10/30 05:46:38;;;;;;;29.92;23.15;;;10.60;99.90;;;;;;4998714;28;20053;-65
2021/10/30 05:49:06;;;;;;;27.55;21.35;;;10.70;99.90;;;;;;5002713;28;20046;-64
2021/10/30 05:51:33;;;;;;;28.13;22.30;;;10.70;99.90;;;;;;4996526;28;20168;-64
2021/10/30 05:53:59;;;;;;;26.63;22.02;;;10.70;99.90;;;;;;4999223;28;20041;-64
2021/10/30 05:56:24;;;;;;;24.17;19.80;;;10.80;99.90;;;;;;5004688;28;20037;-64
2021/10/30 05:58:50;;;;;;;25.75;20.98;;;10.80;99.90;;;;;;4994686;28;20046;-65
2021/10/30 06:01:16;;;;;;;25.92;19.45;;;10.80;99.90;;;;;;5005048;28;20041;-64
2021/10/30 06:03:41;;;;;;;22.23;18.95;;;10.80;99.90;;;;;;4997602;28;20050;-64
2021/10/30 06:06:07;;;;;;;21.60;19.08;;;10.80;99.90;;;;;;5006264;28;20357;-64
2021/10/30 06:08:33;;;;;;;21.45;19.10;;;10.90;99.90;;;;;;5001407;28;20038;-64
2021/10/30 06:10:59;;;;;;;22.58;19.15;;;10.90;99.90;;;;;;5000397;28;20073;-64
2021/10/30 06:13:25;;;;;;;22.58;18.65;;;10.90;99.90;;;;;;4996244;28;20586;-64
2021/10/30 06:15:50;;;;;;;18.23;16.33;;;10.90;99.90;;;;;;5002749;28;20060;-64
2021/10/30 06:18:16;;;;;;;18.75;16.80;;;10.90;99.90;;;;;;4997569;28;20037;-64
2021/10/30 06:20:42;;;;;;;21.08;17.13;;;10.90;99.90;;;;;;5010699;28;20034;-64
2021/10/30 06:23:08;;;;;;;20.23;16.80;;;10.90;99.90;;;;;;4993448;28;20041;-65
2021/10/30 06:25:33;;;;;;;21.52;17.05;;;10.90;99.90;;;;;;5000355;28;20038;-64
2021/10/30 06:27:59;;;;;;;19.98;16.85;;;10.90;99.90;;;;;;5001623;28;20462;-65
2021/10/30 06:30:25;;;;;;;18.67;16.50;;;10.90;99.90;;;;;;5000287;28;20473;-65
2021/10/30 06:32:52;;;;;;;17.52;15.63;;;11.00;99.90;;;;;;5020825;28;20127;-64
2021/10/30 06:35:18;;;;;;;18.80;16.90;;;10.90;99.90;;;;;;5004992;28;20060;-64
2021/10/30 06:37:44;;;;;;;16.83;14.27;;;10.90;99.90;;;;;;5022839;28;20079;-64
2021/10/30 06:40:13;;;;;;;18.65;14.43;;;11.00;99.90;;;;;;5017412;28;20038;-64
2021/10/30 06:42:39;;;;;;;16.00;14.30;;;11.00;99.90;;;;;;5004257;28;20498;-64
2021/10/30 06:45:06;;;;;;;17.55;14.43;;;11.00;99.90;;;;;;4996246;28;20137;-64
2021/10/30 06:47:31;;;;;;;14.40;12.90;;;11.00;99.90;;;;;;5021292;28;20045;-64
2021/10/30 06:49:59;;;;;;;15.32;13.73;;;11.00;99.90;;;;;;5018398;28;20067;-65
2021/10/30 06:52:26;;;;;;;14.80;13.13;;;11.00;99.90;;;;;;5006151;28;20061;-65
2021/10/30 06:54:52;;;;;;;14.43;11.88;;;11.00;99.90;;;;;;5015418;28;20038;-65
2021/10/30 06:57:18;;;;;;;15.27;13.00;;;11.10;99.90;;;;;;5019813;28;20036;-65
2021/10/30 06:59:44;;;;;;;14.65;11.40;;;11.10;99.90;;;;;;5013570;28;20042;-64
2021/10/30 07:02:11;;;;;;;15.25;10.40;;;11.10;99.90;;;;;;5019472;28;20113;-66
2021/10/30 07:04:37;;;;;;;12.07;10.77;;;11.10;99.90;;;;;;5000092;28;20056;-66
2021/10/30 07:07:03;;;;;;;11.43;9.40;;;11.10;99.90;;;;;;5021361;28;20370;-65
2021/10/30 07:09:29;;;;;;;11.40;9.35;;;11.10;99.90;;;;;;5019104;28;20157;-66
2021/10/30 07:11:54;;;;;;;14.13;9.43;;;11.20;99.90;;;;;;5017386;28;20504;-66
2021/10/30 07:14:21;;;;;;;10.85;9.63;;;11.20;99.90;;;;;;5017795;28;20029;-66
2021/10/30 07:16:48;;;;;;;12.45;9.75;;;11.20;99.90;;;;;;5012663;28;20038;-66
2021/10/30 07:19:14;;;;;;;13.23;9.90;;;11.20;99.90;;;;;;5023610;28;20118;-66
2021/10/30 07:21:39;;;;;;;11.57;8.45;;;11.20;99.90;;;;;;5019393;28;20127;-67
2021/10/30 07:24:05;;;;;;;10.70;9.05;;;11.20;99.90;;;;;;5003551;28;20057;-67
2021/10/30 07:26:31;;;;;;;12.27;9.27;;;11.20;99.90;;;;;;5020265;28;20037;-67
2021/10/30 07:28:57;;;;;;;11.48;9.75;;;11.20;99.90;;;;;;5017299;28;20037;-67
2021/10/30 07:31:22;;;;;;;13.02;9.38;;;11.20;99.90;;;;;;4996664;28;20053;-67
2021/10/30 07:33:48;;;;;;;11.32;9.73;;;11.20;99.90;;;;;;5021539;28;20398;-67
2021/10/30 07:36:14;;;;;;;12.15;9.07;;;11.20;99.90;;;;;;5017586;28;20037;-67
2021/10/30 07:38:39;;;;;;;11.25;9.10;;;11.20;99.90;;;;;;5017823;28;20132;-67
2021/10/30 07:41:05;;;;;;;12.48;10.30;;;11.20;99.90;;;;;;5002338;28;20057;-66
2021/10/30 07:43:33;;;;;;;16.17;10.88;;;11.20;99.90;;;;;;5005417;28;20041;-65
2021/10/30 07:45:59;;;;;;;12.93;10.07;;;11.20;99.90;;;;;;5018757;28;20129;-66
2021/10/30 07:48:24;;;;;;;14.43;10.20;;;11.20;99.90;;;;;;5022164;28;20132;-65
2021/10/30 07:50:50;;;;;;;11.38;9.07;;;11.20;99.90;;;;;;5027156;28;20049;-66
2021/10/30 07:53:16;;;;;;;12.70;10.30;;;11.20;99.90;;;;;;5016948;28;20535;-65
2021/10/30 07:55:42;;;;;;;12.65;10.18;;;11.20;99.90;;;;;;5027698;28;20117;-65
2021/10/30 07:58:07;;;;;;;12.80;10.25;;;11.20;99.90;;;;;;5005683;28;20456;-65
2021/10/30 08:00:33;;;;;;;13.27;9.95;;;11.20;99.90;;;;;;5022837;28;20037;-65
2021/10/30 08:02:59;;;;;;;15.40;10.77;;;11.20;99.90;;;;;;5016292;28;20048;-65
2021/10/30 08:05:25;;;;;;;15.07;10.80;;;11.20;99.90;;;;;;5009595;28;20040;-65
2021/10/30 08:07:53;;;;;;;13.48;10.40;;;11.10;99.90;;;;;;5001977;28;20033;-65
2021/10/30 08:10:19;;;;;;;13.70;11.02;;;11.20;99.90;;;;;;5021080;28;20449;-65
2021/10/30 08:12:46;;;;;;;12.68;10.50;;;11.20;99.90;;;;;;5019774;28;20041;-65
2021/10/30 08:15:11;;;;;;;13.15;10.07;;;11.20;99.90;;;;;;5013179;28;20052;-65
2021/10/30 08:17:37;;;;;;;13.52;10.10;;;11.20;99.90;;;;;;5024301;28;20417;-65
2021/10/30 08:20:04;;;;;;;16.67;10.65;;;11.20;99.90;;;;;;5028313;28;20057;-65
2021/10/30 08:22:30;;;;;;;14.73;11.32;;;11.20;99.90;;;;;;5010699;28;20057;-65
2021/10/30 08:24:56;;;;;;;14.77;10.52;;;11.20;99.90;;;;;;5013359;28;20057;-65
2021/10/30 08:27:22;;;;;;;13.80;10.20;;;11.20;99.90;;;;;;5023757;28;20039;-65
2021/10/30 08:29:47;;;;;;;16.08;10.65;;;11.20;99.90;;;;;;5021437;28;20034;-65
2021/10/30 08:32:14;;;;;;;13.18;10.02;;;11.20;99.90;;;;;;5030362;28;20052;-65
2021/10/30 08:34:40;;;;;;;14.57;10.60;;;11.20;99.90;;;;;;5024297;28;20095;-65
2021/10/30 08:37:06;;;;;;;15.40;10.45;;;11.20;99.90;;;;;;5023253;28;20033;-65
2021/10/30 08:39:32;;;;;;;12.35;9.40;;;11.30;99.90;;;;;;5025450;28;20442;-65
2021/10/30 08:41:58;;;;;;;13.88;9.48;;;11.30;99.90;;;;;;5029827;28;20068;-64
2021/10/30 08:44:24;;;;;;;13.23;10.23;;;11.30;99.90;;;;;;5024580;28;20485;-65
2021/10/30 08:46:53;;;;;;;13.73;10.20;;;11.40;99.90;;;;;;5010349;28;20129;-65
2021/10/30 08:49:20;;;;;;;12.60;9.88;;;11.40;99.90;;;;;;5024559;28;20107;-65
2021/10/30 08:51:47;;;;;;;12.40;10.45;;;11.40;99.90;;;;;;5030421;28;20041;-65
2021/10/30 08:54:13;;;;;;;16.48;10.30;;;11.40;99.90;;;;;;5004927;28;20052;-64
2021/10/30 08:56:40;;;;;;;15.27;10.40;;;11.40;99.90;;;;;;5027753;28;20037;-64
2021/10/30 08:59:09;;;;;;;11.45;9.02;;;11.40;99.90;;;;;;5024483;28;20041;-65
2021/10/30 09:01:47;;;;;;;11.98;9.52;;;11.50;99.90;;;;;;4986838;28;20078;-64
2021/10/30 09:04:17;;;;;;;12.23;10.07;;;11.50;99.90;;;;;;5019088;28;20041;-64
2021/10/30 09:07:04;;;;;;;10.93;9.68;;;11.50;99.90;;;;;;5029531;28;20573;-64
2021/10/30 09:09:31;;;;;;;11.45;9.63;;;11.50;99.90;;;;;;5024677;28;20049;-64
2021/10/30 09:12:00;;;;;;;12.70;9.68;;;11.60;99.90;;;;;;5024109;28;20084;-64
2021/10/30 09:14:28;;;;;;;14.52;9.77;;;11.60;99.90;;;;;;5010204;28;20041;-64
2021/10/30 09:17:15;;;;;;;11.43;8.63;;;11.70;99.90;;;;;;5027223;28;20107;-64
2021/10/30 09:19:59;;;;;;;11.45;9.07;;;11.70;99.90;;;;;;5022867;28;20033;-64
2021/10/30 09:22:25;;;;;;;10.65;8.57;;;11.70;99.90;;;;;;5026640;28;20164;-64
2021/10/30 09:25:01;;;;;;;13.10;9.25;;;11.80;99.90;;;;;;5011800;28;20476;-64
2021/10/30 09:27:53;;;;;;;13.02;8.82;;;11.90;99.90;;;;;;5025443;28;20129;-64
2021/10/30 09:30:36;;;;;;;14.05;9.45;;;11.90;99.90;;;;;;5021218;28;20041;-64
2021/10/30 09:33:04;;;;;;;11.55;8.65;;;12.00;99.90;;;;;;5024244;28;20498;-64
2021/10/30 09:35:43;;;;;;;12.90;8.73;;;12.00;99.90;;;;;;5007272;28;20049;-64
2021/10/30 09:38:30;;;;;;;13.98;8.70;;;12.10;99.90;;;;;;5027965;28;20117;-64
2021/10/30 09:40:56;;;;;;;10.65;7.80;;;12.10;99.90;;;;;;5019916;28;20136;-65
2021/10/30 09:43:22;;;;;;;9.02;7.82;;;12.20;99.90;;;;;;5011283;28;20038;-65
2021/10/30 09:45:51;;;;;;;9.23;7.35;;;12.20;99.90;;;;;;5004046;28;20045;-65
2021/10/30 09:48:23;;;;;;;9.35;7.88;;;12.30;99.90;;;;;;5020887;28;20041;-65
2021/10/30 09:50:58;;;;;;;14.20;8.18;;;12.40;99.90;;;;;;5009355;28;20045;-65
2021/10/30 09:53:28;;;;;;;8.98;8.05;;;12.40;99.90;;;;;;5027147;28;20397;-65
2021/10/30 09:56:05;;;;;;;10.75;7.85;;;12.40;99.90;;;;;;5028533;28;20037;-65
2021/10/30 09:58:34;;;;;;;10.55;6.70;;;12.40;99.90;;;;;;5022405;28;20086;-65
2021/10/30 10:01:18;;;;;;;9.38;6.97;;;12.50;99.90;;;;;;5026251;28;20121;-65
2021/10/30 10:03:50;;;;;;;9.60;7.05;;;12.50;99.90;;;;;;5027554;28;20037;-65
2021/10/30 10:06:22;;;;;;;9.60;7.05;;;12.40;99.90;;;;;;5028940;28;20041;-65
2021/10/30 10:08:49;;;;;;;9.80;7.20;;;12.40;99.90;;;;;;5018512;28;20128;-65
2021/10/30 10:11:17;;;;;;;9.85;6.15;;;12.50;99.90;;;;;;5010574;28;20057;-65
2021/10/30 10:13:46;;;;;;;7.43;6.63;;;12.40;99.90;;;;;;5020622;28;20088;-65
2021/10/30 10:16:20;;;;;;;9.18;6.80;;;12.50;99.90;;;;;;5007326;28;20038;-65
2021/10/30 10:18:47;;;;;;;12.73;7.82;;;12.50;99.90;;;;;;5018072;28;20044;-65
2021/10/30 10:21:22;;;;;;;7.05;6.35;;;12.40;99.90;;;;;;5025827;28;20049;-65
2021/10/30 10:23:49;;;;;;;13.88;6.85;;;12.50;99.90;;;;;;4987436;28;20056;-65
2021/10/30 10:26:15;;;;;;;8.45;7.03;;;12.50;99.90;;;;;;5028771;28;20045;-65
2021/10/30 10:28:43;;;;;;;9.68;7.22;;;12.50;99.90;;;;;;5009376;28;20399;-65
2021/10/30 10:31:23;;;;;;;9.43;6.28;;;12.50;99.90;;;;;;5003671;28;20048;-65
2021/10/30 10:34:22;;;;;;;7.10;6.18;;;12.50;99.90;;;;;;5023469;28;20069;-65
2021/10/30 10:36:49;;;;;;;9.95;7.40;;;12.50;99.90;;;;;;4982297;28;20091;-65
2021/10/30 10:39:16;;;;;;;10.10;7.25;;;12.50;99.90;;;;;;5003383;28;20519;-65
2021/10/30 10:41:46;;;;;;;12.48;7.78;;;12.60;99.90;;;;;;5025711;28;20041;-65
2021/10/30 10:44:27;;;;;;;7.78;6.25;;;12.60;99.90;;;;;;5012628;28;20050;-64
2021/10/30 10:47:00;;;;;;;7.72;6.13;;;12.60;99.90;;;;;;5024509;28;20034;-65
2021/10/30 10:49:45;;;;;;;10.93;7.00;;;12.60;99.90;;;;;;5024220;28;20044;-65
2021/10/30 10:52:17;;;;;;;9.52;6.57;;;12.60;99.90;;;;;;5022841;28;20045;-65
2021/10/30 10:55:03;;;;;;;8.40;6.20;;;12.60;99.90;;;;;;5018456;28;20034;-65
2021/10/30 10:57:32;;;;;;;8.38;6.63;;;12.60;99.90;;;;;;5027368;28;20044;-65
2021/10/30 11:00:01;;;;;;;9.50;6.63;;;12.60;99.90;;;;;;5019333;28;20649;-65
2021/10/30 11:02:32;;;;;;;7.68;6.20;;;12.60;99.90;;;;;;5022811;28;20132;-65
2021/10/30 11:05:07;;;;;;;8.38;6.35;;;12.50;99.90;;;;;;4985590;28;20370;-65
2021/10/30 11:07:33;;;;;;;8.23;6.65;;;12.50;99.90;;;;;;5025905;28;20396;-65
2021/10/30 11:10:07;;;;;;;11.63;7.15;;;12.50;99.90;;;;;;5017836;28;20489;-65
2021/10/30 11:12:33;;;;;;;7.80;6.57;;;12.50;99.90;;;;;;5026580;28;20108;-65
2021/10/30 11:15:10;;;;;;;12.18;6.75;;;12.50;99.90;;;;;;5020958;28;20121;-65
2021/10/30 11:17:47;;;;;;;7.88;6.68;;;12.50;99.90;;;;;;5021163;28;20118;-65
2021/10/30 11:20:18;;;;;;;9.88;6.57;;;12.50;99.90;;;;;;5002216;28;20121;-65
2021/10/30 11:23:01;;;;;;;9.50;7.38;;;12.50;99.90;;;;;;5023281;28;20556;-65
2021/10/30 11:25:31;;;;;;;8.57;7.50;;;12.60;99.90;;;;;;5014265;28;20288;-65
2021/10/30 11:28:00;;;;;;;10.35;7.10;;;12.50;99.90;;;;;;5024928;28;20057;-65
2021/10/30 11:30:33;;;;;;;7.40;6.55;;;12.60;99.90;;;;;;5018688;28;20025;-65
2021/10/30 11:33:26;;;;;;;9.75;6.25;;;12.60;99.90;;;;;;5007301;28;20405;-65
2021/10/30 11:36:13;;;;;;;8.25;6.68;;;12.60;99.90;;;;;;5012972;28;20406;-65
2021/10/30 11:38:49;;;;;;;9.35;6.47;;;12.60;99.90;;;;;;5018410;28;20497;-65
2021/10/30 11:41:20;;;;;;;8.48;6.65;;;12.60;99.90;;;;;;5022205;28;20440;-65
2021/10/30 11:43:48;;;;;;;9.63;7.28;;;12.70;99.90;;;;;;5027895;28;20529;-65
2021/10/30 11:46:16;;;;;;;8.88;7.18;;;12.70;99.90;;;;;;5013954;28;20095;-65
2021/10/30 11:48:44;;;;;;;8.52;7.00;;;12.70;99.90;;;;;;5011573;28;20046;-65
2021/10/30 11:51:15;;;;;;;7.30;6.20;;;12.70;99.90;;;;;;5025189;28;20048;-65
2021/10/30 11:53:42;;;;;;;8.30;6.13;;;12.70;99.90;;;;;;5031494;28;20106;-65
2021/10/30 11:56:26;;;;;;;8.90;6.72;;;12.70;99.90;;;;;;5023266;28;20033;-65
2021/10/30 11:58:54;;;;;;;9.38;6.43;;;12.70;99.90;;;;;;5025161;28;20526;-65
2021/10/30 12:01:27;;;;;;;7.70;6.22;;;12.70;99.90;;;;;;5021782;28;20132;-65
2021/10/30 12:04:08;;;;;;;9.50;6.10;;;12.70;99.90;;;;;;5026440;28;20049;-65
2021/10/30 12:06:56;;;;;;;9.45;6.30;;;12.70;99.90;;;;;;5021566;28;20444;-65
2021/10/30 12:09:33;;;;;;;7.57;6.07;;;12.80;99.90;;;;;;5027396;28;20073;-65
2021/10/30 12:12:25;;;;;;;8.55;6.30;;;12.80;99.90;;;;;;5024139;28;20065;-65
2021/10/30 12:14:53;;;;;;;7.25;6.25;;;12.80;99.90;;;;;;5023113;28;20042;-65
2021/10/30 12:17:25;;;;;;;10.27;5.93;;;12.80;99.90;;;;;;5005637;28;20046;-65
2021/10/30 12:20:00;;;;;;;9.98;6.65;;;12.80;99.90;;;;;;5027507;28;20446;-65
2021/10/30 12:22:28;;;;;;;7.82;5.50;;;12.80;99.90;;;;;;5018479;28;20037;-64
2021/10/30 12:24:59;;;;;;;10.82;6.43;;;12.90;99.90;;;;;;5027873;28;20104;-64
2021/10/30 12:27:25;;;;;;;10.25;5.82;;;12.90;99.90;;;;;;5008638;28;20045;-65
2021/10/30 12:29:50;;;;;;;7.45;5.97;;;12.90;99.90;;;;;;5007795;28;20124;-65
2021/10/30 12:32:17;;;;;;;8.25;5.75;;;12.90;99.90;;;;;;5005817;28;20033;-65
2021/10/30 12:34:53;;;;;;;9.50;6.28;;;12.90;99.90;;;;;;5027416;28;20029;-65
2021/10/30 12:37:25;;;;;;;6.20;5.57;;;12.90;99.90;;;;;;5028097;28;20111;-65